createdAt,value
2023-01-07T00:01:10.941Z,95383.34
2023-01-07T00:03:39.051Z,95385.25
2023-01-07T00:06:08.948Z,95382.53
2023-01-07T00:08:41.108Z,95380.63
2023-01-07T00:11:09.099Z,95380.84
2023-01-07T00:13:37.097Z,95376.72
2023-01-07T00:16:06.704Z,95381.72
2023-01-07T00:18:34.936Z,95377.94
2023-01-07T00:21:04.719Z,95375.22
2023-01-07T00:23:33.422Z,95373.78
2023-01-07T00:26:04.479Z,95376.50
2023-01-07T00:28:33.890Z,95369.22
2023-01-07T00:31:01.911Z,95368.41
2023-01-07T00:33:29.643Z,95364.03
2023-01-07T00:36:01.069Z,95360.91
2023-01-07T00:38:29.075Z,95356.56
2023-01-07T00:40:56.775Z,95365.13
2023-01-07T00:43:25.786Z,95360.97
2023-01-07T00:45:53.451Z,95353.28
2023-01-07T00:48:23.567Z,95352.25
2023-01-07T00:50:52.600Z,95360.16
2023-01-07T00:53:20.660Z,95355.16
2023-01-07T00:55:49.668Z,95362.00
2023-01-07T00:58:20.739Z,95353.66
2023-01-07T01:00:50.394Z,95360.38
2023-01-07T01:03:18.383Z,95354.75
2023-01-07T01:05:46.223Z,95359.72
2023-01-07T01:08:14.048Z,95353.28
2023-01-07T01:10:41.883Z,95346.81
2023-01-07T01:13:11.608Z,95351.19
2023-01-07T01:15:43.273Z,95349.53
2023-01-07T01:18:12.493Z,95347.66
2023-01-07T01:20:40.356Z,95354.75
2023-01-07T01:23:08.749Z,95348.91
2023-01-07T01:25:36.532Z,95357.03
2023-01-07T01:28:04.627Z,95360.53
2023-01-07T01:30:32.253Z,95358.44
2023-01-07T01:32:59.927Z,95360.94
2023-01-07T01:35:28.927Z,95357.22
2023-01-07T01:37:56.645Z,95358.63
2023-01-07T01:40:24.522Z,95356.34
2023-01-07T01:42:52.222Z,95352.59
2023-01-07T01:45:19.960Z,95350.91
2023-01-07T01:47:50.562Z,95352.41
2023-01-07T01:50:21.461Z,95342.41
2023-01-07T01:52:53.605Z,95334.69
2023-01-07T01:55:22.037Z,95336.38
2023-01-07T01:57:52.162Z,95334.28
2023-01-07T02:00:20.074Z,95335.75
2023-01-07T02:02:49.664Z,95328.25
2023-01-07T02:05:17.603Z,95329.47
2023-01-07T02:07:45.279Z,95331.16
2023-01-07T02:10:17.063Z,95333.84
2023-01-07T02:12:51.380Z,95333.44
2023-01-07T02:15:25.818Z,95325.97
2023-01-07T02:18:06.285Z,95324.31
2023-01-07T02:20:43.979Z,95320.56
2023-01-07T02:23:36.466Z,95318.91
2023-01-07T02:26:16.421Z,95314.09
2023-01-07T02:29:05.261Z,95321.63
2023-01-07T02:32:04.211Z,95320.97
2023-01-07T02:34:35.448Z,95309.97
2023-01-07T02:37:07.655Z,95307.69
2023-01-07T02:39:38.114Z,95305.19
2023-01-07T02:42:09.435Z,95301.66
2023-01-07T02:44:41.565Z,95307.50
2023-01-07T02:47:12.824Z,95301.88
2023-01-07T02:49:40.611Z,95294.63
2023-01-07T02:52:19.625Z,95292.13
2023-01-07T02:54:51.010Z,95297.09
2023-01-07T02:57:37.253Z,95291.69
2023-01-07T03:00:15.450Z,95297.97
2023-01-07T03:02:59.391Z,95294.41
2023-01-07T03:05:38.080Z,95286.91
2023-01-07T03:08:16.805Z,95284.22
2023-01-07T03:10:48.241Z,95285.25
2023-01-07T03:13:18.557Z,95278.41
2023-01-07T03:15:49.455Z,95281.13
2023-01-07T03:18:20.341Z,95276.53
2023-01-07T03:20:51.045Z,95276.94
2023-01-07T03:23:21.856Z,95276.34
2023-01-07T03:25:51.743Z,95269.47
2023-01-07T03:28:22.253Z,95272.81
2023-01-07T03:30:50.627Z,95271.16
2023-01-07T03:33:23.324Z,95269.28
2023-01-07T03:35:51.964Z,95256.56
2023-01-07T03:38:20.632Z,95260.13
2023-01-07T03:40:48.305Z,95255.34
2023-01-07T03:43:15.741Z,95255.97
2023-01-07T03:45:43.730Z,95251.41
2023-01-07T03:48:11.323Z,95246.63
2023-01-07T03:50:40.363Z,95236.22
2023-01-07T03:53:08.307Z,95238.53
2023-01-07T03:55:35.977Z,95233.56
2023-01-07T03:58:03.766Z,95234.38
2023-01-07T04:00:31.483Z,95234.78
2023-01-07T04:02:59.218Z,95221.25
2023-01-07T04:05:26.875Z,95226.22
2023-01-07T04:07:55.933Z,95218.34
2023-01-07T04:10:23.667Z,95223.75
2023-01-07T04:12:51.378Z,95206.28
2023-01-07T04:15:19.115Z,95209.44
2023-01-07T04:17:46.782Z,95212.94
2023-01-07T04:20:14.438Z,95205.50
2023-01-07T04:22:42.095Z,95199.47
2023-01-07T04:25:11.126Z,95198.41
2023-01-07T04:27:38.931Z,95197.81
2023-01-07T04:30:07.586Z,95189.69
2023-01-07T04:32:35.270Z,95190.31
2023-01-07T04:35:02.950Z,95184.28
2023-01-07T04:37:30.689Z,95186.19
2023-01-07T04:39:58.437Z,95187.22
2023-01-07T04:42:27.478Z,95176.41
2023-01-07T04:44:55.191Z,95166.03
2023-01-07T04:47:22.843Z,95161.44
2023-01-07T04:49:50.423Z,95161.03
2023-01-07T04:52:18.066Z,95150.69
2023-01-07T04:54:45.751Z,95161.72
2023-01-07T04:57:13.408Z,95160.28
2023-01-07T04:59:42.421Z,95152.78
2023-01-07T05:02:10.125Z,95149.88
2023-01-07T05:04:37.871Z,95146.38
2023-01-07T05:07:05.578Z,95139.50
2023-01-07T05:09:34.504Z,95134.34
2023-01-07T05:12:02.187Z,95141.03
2023-01-07T05:14:29.849Z,95139.56
2023-01-07T05:16:58.874Z,95131.28
2023-01-07T05:19:26.568Z,95132.31
2023-01-07T05:21:54.296Z,95124.88
2023-01-07T05:24:22.111Z,95130.91
2023-01-07T05:26:49.743Z,95126.72
2023-01-07T05:29:17.430Z,95119.91
2023-01-07T05:31:45.084Z,95114.53
2023-01-07T05:34:14.081Z,95119.09
2023-01-07T05:36:41.715Z,95116.19
2023-01-07T05:39:09.586Z,95112.25
2023-01-07T05:41:37.239Z,95108.72
2023-01-07T05:44:05.288Z,95104.34
2023-01-07T05:46:32.984Z,95102.28
2023-01-07T05:49:00.669Z,95096.88
2023-01-07T05:51:29.723Z,95100.41
2023-01-07T05:53:57.325Z,95101.44
2023-01-07T05:56:24.975Z,95094.56
2023-01-07T05:58:52.569Z,95097.47
2023-01-07T06:01:20.434Z,95097.22
2023-01-07T06:03:48.199Z,95094.09
2023-01-07T06:06:15.888Z,95097.22
2023-01-07T06:08:44.903Z,95094.50
2023-01-07T06:11:12.562Z,95094.31
2023-01-07T06:13:40.148Z,95089.13
2023-01-07T06:16:10.579Z,95090.38
2023-01-07T06:18:38.228Z,95094.09
2023-01-07T06:21:06.154Z,95091.81
2023-01-07T06:23:33.932Z,95093.22
2023-01-07T06:26:02.895Z,95090.50
2023-01-07T06:28:30.784Z,95080.56
2023-01-07T06:30:58.509Z,95080.97
2023-01-07T06:33:26.266Z,95080.13
2023-01-07T06:35:53.918Z,95084.72
2023-01-07T06:38:21.570Z,95072.25
2023-01-07T06:40:49.242Z,95078.19
2023-01-07T06:43:18.255Z,95074.03
2023-01-07T06:45:46.021Z,95066.34
2023-01-07T06:48:13.681Z,95063.84
2023-01-07T06:50:41.341Z,95052.66
2023-01-07T06:53:08.982Z,95056.56
2023-01-07T06:55:36.598Z,95052.25
2023-01-07T06:58:04.320Z,95059.88
2023-01-07T07:00:33.349Z,95063.78
2023-01-07T07:03:00.991Z,95056.50
2023-01-07T07:05:29.481Z,95050.47
2023-01-07T07:07:57.454Z,95054.81
2023-01-07T07:10:25.137Z,95060.53
2023-01-07T07:12:52.812Z,95051.00
2023-01-07T07:15:20.489Z,95059.28
2023-01-07T07:17:49.499Z,95047.88
2023-01-07T07:20:17.347Z,95054.28
2023-01-07T07:22:48.650Z,95052.00
2023-01-07T07:25:16.799Z,95048.22
2023-01-07T07:27:45.971Z,95045.75
2023-01-07T07:30:14.877Z,95038.69
2023-01-07T07:32:42.685Z,95030.41
2023-01-07T07:35:12.507Z,95032.50
2023-01-07T07:37:40.344Z,95035.16
2023-01-07T07:40:09.559Z,95029.78
2023-01-07T07:43:10.284Z,95034.28
2023-01-07T07:45:26.539Z,95035.16
2023-01-07T07:47:54.153Z,95028.91
2023-01-07T07:50:23.404Z,95032.84
2023-01-07T07:52:50.997Z,95035.53
2023-01-07T07:55:20.121Z,95027.28
2023-01-07T07:57:54.330Z,95027.66
2023-01-07T08:00:22.162Z,95027.84
2023-01-07T08:02:49.816Z,95023.09
2023-01-07T08:05:17.880Z,95022.09
2023-01-07T08:07:46.894Z,95018.16
2023-01-07T08:10:14.545Z,95024.63
2023-01-07T08:12:42.237Z,95022.75
2023-01-07T08:15:10.751Z,95021.28
2023-01-07T08:17:38.526Z,95020.88
2023-01-07T08:20:07.639Z,95017.19
2023-01-07T08:22:36.135Z,95017.41
2023-01-07T08:25:05.598Z,95008.56
2023-01-07T08:27:33.240Z,95006.72
2023-01-07T08:30:00.972Z,95005.94
2023-01-07T08:32:28.615Z,95011.75
2023-01-07T08:34:56.251Z,95001.84
2023-01-07T08:37:23.886Z,94995.47
2023-01-07T08:39:51.585Z,94993.41
2023-01-07T08:42:20.577Z,94994.91
2023-01-07T08:44:48.377Z,94996.75
2023-01-07T08:47:16.027Z,94984.78
2023-01-07T08:49:43.706Z,94982.72
2023-01-07T08:52:11.356Z,94973.66
2023-01-07T08:54:39.108Z,94974.91
2023-01-07T08:57:06.821Z,94975.31
2023-01-07T08:59:35.800Z,94967.25
2023-01-07T09:02:03.722Z,94968.72
2023-01-07T09:04:31.386Z,94961.66
2023-01-07T09:06:59.010Z,94961.44
2023-01-07T09:09:26.623Z,94960.22
2023-01-07T09:11:54.259Z,94960.59
2023-01-07T09:14:21.885Z,94951.66
2023-01-07T09:16:50.951Z,94954.97
2023-01-07T09:19:18.707Z,94955.78
2023-01-07T09:21:46.371Z,94940.19
2023-01-07T09:24:14.220Z,94947.84
2023-01-07T09:26:41.907Z,94948.63
2023-01-07T09:29:09.597Z,94948.59
2023-01-07T09:31:37.447Z,94956.03
2023-01-07T09:34:06.562Z,94958.28
2023-01-07T09:36:34.648Z,94952.16
2023-01-07T09:39:02.421Z,94956.22
2023-01-07T09:41:39.139Z,94948.88
2023-01-07T09:44:13.823Z,94946.72
2023-01-07T09:46:41.592Z,94942.84
2023-01-07T09:49:17.438Z,94939.59
2023-01-07T09:51:47.614Z,94939.03
2023-01-07T09:54:21.368Z,94938.69
2023-01-07T09:56:49.195Z,94932.47
2023-01-07T09:59:18.169Z,94927.06
2023-01-07T10:01:49.644Z,94928.31
2023-01-07T10:04:29.460Z,94928.56
2023-01-07T10:07:03.642Z,94924.59
2023-01-07T10:09:37.298Z,94923.72
2023-01-07T10:12:11.241Z,94917.59
2023-01-07T10:14:46.471Z,94908.91
2023-01-07T10:17:24.246Z,94912.13
2023-01-07T10:19:58.581Z,94898.59
2023-01-07T10:22:31.281Z,94900.63
2023-01-07T10:25:01.044Z,94882.59
2023-01-07T10:27:31.878Z,94879.78
2023-01-07T10:30:02.305Z,94882.50
2023-01-07T10:32:32.090Z,94874.25
2023-01-07T10:35:02.307Z,94877.25
2023-01-07T10:37:32.642Z,94867.22
2023-01-07T10:40:16.732Z,94861.44
2023-01-07T10:42:49.802Z,94851.72
2023-01-07T10:45:35.012Z,94847.44
2023-01-07T10:48:15.440Z,94844.38
2023-01-07T10:50:55.756Z,94843.72
2023-01-07T10:53:33.088Z,94840.97
2023-01-07T10:56:09.486Z,94838.22
2023-01-07T10:58:40.088Z,94838.41
2023-01-07T11:01:08.875Z,94832.63
2023-01-07T11:03:38.839Z,94827.38
2023-01-07T11:06:11.164Z,94823.28
2023-01-07T11:08:40.734Z,94817.19
2023-01-07T11:11:15.145Z,94814.22
2023-01-07T11:13:44.515Z,94805.97
2023-01-07T11:16:14.382Z,94808.72
2023-01-07T11:18:47.092Z,94805.09
2023-01-07T11:21:43.144Z,94798.22
2023-01-07T11:24:30.297Z,94794.69
2023-01-07T11:27:03.811Z,94794.69
2023-01-07T11:29:36.549Z,94792.63
2023-01-07T11:32:05.921Z,94790.25
2023-01-07T11:34:36.885Z,94791.31
2023-01-07T11:37:06.209Z,94788.03
2023-01-07T11:39:35.864Z,94782.25
2023-01-07T11:42:25.714Z,94783.47
2023-01-07T11:45:09.380Z,94775.69
2023-01-07T11:47:38.240Z,94775.59
2023-01-07T11:50:06.667Z,94765.00
2023-01-07T11:52:35.720Z,94762.94
2023-01-07T11:55:03.515Z,94767.59
2023-01-07T11:57:31.129Z,94758.50
2023-01-07T12:00:20.147Z,94754.78
2023-01-07T12:03:00.512Z,94754.38
2023-01-07T12:05:28.614Z,94760.47
2023-01-07T12:07:58.779Z,94753.72
2023-01-07T12:10:29.583Z,94758.63
2023-01-07T12:12:57.241Z,94758.00
2023-01-07T12:15:27.595Z,94753.91
2023-01-07T12:18:09.548Z,94747.94
2023-01-07T12:20:44.061Z,94749.28
2023-01-07T12:23:22.424Z,94741.28
2023-01-07T12:25:54.217Z,94741.88
2023-01-07T12:28:40.551Z,94739.56
2023-01-07T12:31:19.141Z,94728.19
2023-01-07T12:34:02.128Z,94735.00
2023-01-07T12:36:37.166Z,94739.44
2023-01-07T12:39:12.713Z,94736.16
2023-01-07T12:41:42.231Z,94730.03
2023-01-07T12:44:14.431Z,94739.31
2023-01-07T12:46:42.819Z,94736.41
2023-01-07T12:49:16.351Z,94735.09
2023-01-07T12:51:46.532Z,94727.94
2023-01-07T12:54:19.741Z,94727.56
2023-01-07T12:56:50.541Z,94724.19
2023-01-07T12:59:46.605Z,94718.22
2023-01-07T13:02:17.136Z,94712.50
2023-01-07T13:04:51.480Z,94716.34
2023-01-07T13:07:22.387Z,94714.22
2023-01-07T13:09:53.646Z,94714.06
2023-01-07T13:12:46.600Z,94714.19
2023-01-07T13:15:22.145Z,94721.81
2023-01-07T13:17:51.418Z,94720.84
2023-01-07T13:20:30.204Z,94707.34
2023-01-07T13:22:57.963Z,94715.00
2023-01-07T13:25:41.848Z,94712.03
2023-01-07T13:28:24.804Z,94710.63
2023-01-07T13:31:06.195Z,94720.63
2023-01-07T13:33:40.587Z,94712.09
2023-01-07T13:36:16.111Z,94714.97
2023-01-07T13:39:04.929Z,94713.53
2023-01-07T13:41:48.891Z,94712.41
2023-01-07T13:44:38.384Z,94701.00
2023-01-07T13:47:06.877Z,94707.47
2023-01-07T13:49:35.598Z,94696.88
2023-01-07T13:52:14.715Z,94699.09
2023-01-07T13:54:59.296Z,94690.09
2023-01-07T13:57:46.988Z,94689.72
2023-01-07T14:00:53.493Z,94691.38
2023-01-07T14:03:36.050Z,94698.03
2023-01-07T14:06:43.058Z,94697.09
2023-01-07T14:09:20.405Z,94700.34
2023-01-07T14:12:02.310Z,94692.28
2023-01-07T14:14:38.239Z,94694.84
2023-01-07T14:17:12.899Z,94691.44
2023-01-07T14:19:44.078Z,94694.75
2023-01-07T14:22:18.869Z,94694.63
2023-01-07T14:25:14.673Z,94704.81
2023-01-07T14:28:03.421Z,94704.56
2023-01-07T14:30:35.132Z,94707.47
2023-01-07T14:33:04.492Z,94701.41
2023-01-07T14:35:36.197Z,94705.13
2023-01-07T14:38:42.671Z,94697.97
2023-01-07T14:41:13.162Z,94701.66
2023-01-07T14:43:50.006Z,94702.72
2023-01-07T14:46:48.990Z,94705.38
2023-01-07T14:49:46.380Z,94702.25
2023-01-07T14:52:44.232Z,94700.09
2023-01-07T14:55:25.309Z,94698.84
2023-01-07T14:58:03.424Z,94697.69
2023-01-07T15:00:38.815Z,94696.91
2023-01-07T15:03:26.051Z,94699.38
2023-01-07T15:06:03.491Z,94704.56
2023-01-07T15:09:00.690Z,94704.97
2023-01-07T15:11:45.969Z,94696.75
2023-01-07T15:14:42.142Z,94705.72
2023-01-07T15:17:11.907Z,94703.22
2023-01-07T15:19:39.835Z,94692.50
2023-01-07T15:22:18.274Z,94701.63
2023-01-07T15:24:52.410Z,94703.91
2023-01-07T15:27:27.860Z,94699.53
2023-01-07T15:30:04.969Z,94699.78
2023-01-07T15:32:41.472Z,94701.66
2023-01-07T15:35:10.718Z,94704.41
2023-01-07T15:37:38.310Z,94709.72
2023-01-07T15:40:07.757Z,94708.22
2023-01-07T15:42:35.516Z,94697.84
2023-01-07T15:45:04.825Z,94681.69
2023-01-07T15:47:36.320Z,94681.22
2023-01-07T15:50:22.063Z,94691.97
2023-01-07T15:52:50.877Z,94690.44
2023-01-07T15:55:24.113Z,94691.38
2023-01-07T15:57:53.098Z,94689.88
2023-01-07T16:00:22.222Z,94696.22
2023-01-07T16:02:49.875Z,94688.44
2023-01-07T16:05:19.094Z,94696.09
2023-01-07T16:07:51.451Z,94687.63
2023-01-07T16:10:24.164Z,94691.59
2023-01-07T16:12:52.805Z,94688.53
2023-01-07T16:15:28.206Z,94686.31
2023-01-07T16:17:57.173Z,94673.22
2023-01-07T16:20:29.539Z,94688.75
2023-01-07T16:23:13.648Z,94685.22
2023-01-07T16:25:45.532Z,94686.25
2023-01-07T16:28:17.545Z,94685.16
2023-01-07T16:30:46.654Z,94676.69
2023-01-07T16:33:17.050Z,94677.63
2023-01-07T16:35:46.346Z,94679.59
2023-01-07T16:38:14.695Z,94675.69
2023-01-07T16:40:42.870Z,94682.84
2023-01-07T16:43:30.513Z,94688.19
2023-01-07T16:46:12.581Z,94697.13
2023-01-07T16:48:40.121Z,94703.28
2023-01-07T16:51:34.322Z,94705.69
2023-01-07T16:54:39.995Z,94701.78
2023-01-07T16:57:29.818Z,94714.41
2023-01-07T16:59:58.843Z,94711.56
2023-01-07T17:02:32.708Z,94714.25
2023-01-07T17:05:18.542Z,94706.16
2023-01-07T17:07:47.972Z,94706.75
2023-01-07T17:10:21.400Z,94692.03
2023-01-07T17:12:57.433Z,94692.72
2023-01-07T17:15:36.988Z,94686.28
2023-01-07T17:18:30.723Z,94694.09
2023-01-07T17:20:59.762Z,94696.59
2023-01-07T17:23:38.964Z,94693.88
2023-01-07T17:26:12.564Z,94689.28
2023-01-07T17:28:45.467Z,94692.56
2023-01-07T17:31:13.235Z,94690.28
2023-01-07T17:33:42.828Z,94688.63
2023-01-07T17:36:16.322Z,94697.31
2023-01-07T17:38:44.174Z,94701.69
2023-01-07T17:41:35.362Z,94702.56
2023-01-07T17:44:02.318Z,94696.38
2023-01-07T17:46:31.001Z,94702.69
2023-01-07T17:49:00.921Z,94696.84
2023-01-07T17:51:29.392Z,94692.28
2023-01-07T17:53:58.599Z,94697.66
2023-01-07T17:56:26.561Z,94699.34
2023-01-07T17:58:56.086Z,94697.28
2023-01-07T18:01:24.585Z,94699.81
2023-01-07T18:03:52.713Z,94707.09
2023-01-07T18:06:23.018Z,94705.03
2023-01-07T18:08:51.689Z,94705.25
2023-01-07T18:11:37.963Z,94700.28
2023-01-07T18:14:06.143Z,94703.63
2023-01-07T18:16:34.077Z,94704.88
2023-01-07T18:19:01.760Z,94705.31
2023-01-07T18:21:30.962Z,94707.81
2023-01-07T18:23:58.815Z,94705.34
2023-01-07T18:26:26.522Z,94715.34
2023-01-07T18:28:54.225Z,94707.69
2023-01-07T18:31:21.956Z,94703.78
2023-01-07T18:33:49.769Z,94700.88
2023-01-07T18:36:17.599Z,94704.03
2023-01-07T18:38:46.648Z,94717.09
2023-01-07T18:41:14.383Z,94709.88
2023-01-07T18:43:42.097Z,94708.25
2023-01-07T18:46:10.777Z,94701.00
2023-01-07T18:48:39.052Z,94705.97
2023-01-07T18:51:10.728Z,94697.72
2023-01-07T18:53:39.008Z,94705.00
2023-01-07T18:56:11.681Z,94694.84
2023-01-07T18:58:39.512Z,94699.41
2023-01-07T19:01:08.724Z,94687.38
2023-01-07T19:03:36.830Z,94690.31
2023-01-07T19:06:07.893Z,94693.44
2023-01-07T19:08:35.699Z,94700.03
2023-01-07T19:11:08.431Z,94694.88
2023-01-07T19:13:37.153Z,94700.66
2023-01-07T19:16:07.147Z,94705.63
2023-01-07T19:18:35.105Z,94690.97
2023-01-07T19:21:03.642Z,94695.28
2023-01-07T19:27:13.650Z,94686.59
2023-01-07T19:29:41.395Z,94690.13
2023-01-07T19:32:09.083Z,94694.25
2023-01-07T19:34:36.799Z,94691.38
2023-01-07T19:37:04.441Z,94685.78
2023-01-07T19:39:32.057Z,94697.16
2023-01-07T19:42:05.731Z,94685.81
2023-01-07T19:44:36.579Z,94692.59
2023-01-07T19:47:04.259Z,94700.06
2023-01-07T19:49:31.974Z,94699.03
2023-01-07T19:51:59.623Z,94693.47
2023-01-07T19:54:27.247Z,94690.13
2023-01-07T19:56:55.116Z,94672.97
2023-01-07T19:59:22.879Z,94672.16
2023-01-07T20:01:53.694Z,94665.91
2023-01-07T20:04:21.537Z,94667.78
2023-01-07T20:06:50.461Z,94661.38
2023-01-07T20:09:18.741Z,94671.72
2023-01-07T20:11:46.554Z,94663.03
2023-01-07T20:14:14.777Z,94664.28
2023-01-07T20:16:42.773Z,94662.63
2023-01-07T20:19:12.430Z,94660.53
2023-01-07T20:21:40.257Z,94658.50
2023-01-07T20:24:08.745Z,94657.22
2023-01-07T20:26:38.174Z,94653.53
2023-01-07T20:29:06.152Z,94653.53
2023-01-07T20:31:33.966Z,94657.22
2023-01-07T20:34:02.109Z,94656.59
2023-01-07T20:44:50.868Z,94641.06
2023-01-07T20:51:10.968Z,94631.75
2023-01-07T20:51:23.012Z,94636.31
2023-01-07T20:53:40.170Z,94626.19
2023-01-07T20:56:08.534Z,94627.81
2023-01-07T20:58:38.233Z,94629.88
2023-01-07T21:01:07.484Z,94629.88
2023-01-07T21:03:35.857Z,94615.84
2023-01-07T21:06:03.874Z,94618.91
2023-01-07T21:08:31.859Z,94616.63
2023-01-07T21:11:01.493Z,94615.63
2023-01-07T21:13:29.489Z,94608.38
2023-01-07T21:16:02.708Z,94610.22
2023-01-07T21:18:30.546Z,94606.25
2023-01-07T21:20:58.391Z,94607.50
2023-01-07T21:23:26.960Z,94594.25
2023-01-07T21:25:55.076Z,94590.13
2023-01-07T21:28:24.197Z,94587.63
2023-01-07T21:30:51.968Z,94581.03
2023-01-07T21:33:19.771Z,94577.72
2023-01-07T21:35:47.701Z,94577.50
2023-01-07T21:38:15.905Z,94568.41
2023-01-07T21:40:43.626Z,94577.50
2023-01-07T21:43:11.332Z,94577.91
2023-01-07T21:45:40.537Z,94575.84
2023-01-07T21:48:08.342Z,94576.06
2023-01-07T21:50:36.057Z,94568.81
2023-01-07T21:53:04.018Z,94575.47
2023-01-07T21:55:31.760Z,94580.81
2023-01-07T21:57:59.614Z,94572.94
2023-01-07T22:00:27.674Z,94576.44
2023-01-07T22:02:56.761Z,94575.22
2023-01-07T22:05:24.476Z,94572.53
2023-01-07T22:07:52.405Z,94570.28
2023-01-07T22:10:21.134Z,94572.34
2023-01-07T22:12:49.072Z,94569.41
2023-01-07T22:15:17.044Z,94579.13
2023-01-07T22:17:44.972Z,94580.16
2023-01-07T22:20:14.698Z,94577.47
2023-01-07T22:22:42.670Z,94569.19
2023-01-07T22:25:11.265Z,94575.78
2023-01-07T22:27:39.143Z,94571.84
2023-01-07T22:30:08.788Z,94575.38
2023-01-07T22:32:36.559Z,94581.31
2023-01-07T22:37:11.578Z,94579.66
2023-01-07T22:37:54.775Z,94574.69
2023-01-07T22:40:38.578Z,94580.91
2023-01-07T22:43:07.963Z,94585.00
2023-01-07T22:45:40.651Z,94590.16
2023-01-07T22:48:09.015Z,94586.66
2023-01-07T22:50:37.350Z,94589.13
2023-01-07T22:53:06.855Z,94588.66
2023-01-07T22:55:34.517Z,94583.25
2023-01-07T22:58:02.460Z,94578.72
2023-01-07T23:00:40.299Z,94573.34
2023-01-07T23:03:08.060Z,94571.06
2023-01-07T23:05:37.737Z,94576.44
2023-01-07T23:08:08.083Z,94565.31
2023-01-07T23:10:36.710Z,94566.78
2023-01-07T23:13:04.591Z,94561.00
2023-01-07T23:15:32.202Z,94557.50
2023-01-07T23:17:59.765Z,94552.31
2023-01-07T23:20:27.426Z,94539.13
2023-01-07T23:22:55.073Z,94534.59
2023-01-07T23:25:24.027Z,94529.00
2023-01-07T23:27:51.580Z,94533.78
2023-01-07T23:30:19.495Z,94525.94
2023-01-07T23:32:47.043Z,94520.34
2023-01-07T23:35:14.884Z,94528.78
2023-01-07T23:37:42.651Z,94518.91
2023-01-07T23:40:11.642Z,94514.75
2023-01-07T23:42:40.598Z,94513.13
2023-01-07T23:45:09.164Z,94508.56
2023-01-07T23:47:36.802Z,94501.16
2023-01-07T23:50:04.698Z,94491.03
2023-01-07T23:52:32.307Z,94490.84
2023-01-07T23:54:59.933Z,94491.03
2023-01-07T23:57:28.746Z,94489.22
2023-01-07T23:59:58.208Z,94494.53
